Time;durP1;ratioP1;P1;durP2;ratioP2;P2;SDS_P1;SDS_P2;PMS_P1;PMS_P2;Temp;Humidity;BMP_temperature;BMP_pressure;BME280_temperature;BME280_humidity;BME280_pressure;Samples;Min_cycle;Max_cycle;Signal;HPM_P1;HPM_P2
2022/08/15 00:04:31;;;;;;;7.75;2.72;;;24.10;67.10;;;;;;10062132;28;20097;-61
2022/08/15 00:09:22;;;;;;;3.88;2.28;;;24.30;67.60;;;;;;10075927;28;20052;-61
2022/08/15 00:14:24;;;;;;;5.38;3.15;;;24.50;67.80;;;;;;10071017;28;20499;-60
2022/08/15 00:19:21;;;;;;;6.72;2.33;;;24.70;68.30;;;;;;10063777;28;20107;-60
2022/08/15 00:24:15;;;;;;;3.50;2.65;;;24.70;68.90;;;;;;10060988;28;20064;-59
2022/08/15 00:29:06;;;;;;;6.53;3.20;;;24.60;69.20;;;;;;10066135;28;20029;-59
2022/08/15 00:33:58;;;;;;;3.58;2.45;;;24.10;70.50;;;;;;10070444;28;20530;-59
2022/08/15 00:38:48;;;;;;;4.95;2.33;;;24.00;71.20;;;;;;10079629;28;20133;-59
2022/08/15 00:43:43;;;;;;;6.47;3.55;;;23.90;71.60;;;;;;10077560;28;20112;-60
2022/08/15 00:48:43;;;;;;;3.42;2.55;;;24.20;71.30;;;;;;10071953;28;20060;-59
2022/08/15 00:53:34;;;;;;;4.00;2.20;;;24.20;71.40;;;;;;10067846;28;20112;-62
2022/08/15 00:58:25;;;;;;;5.35;2.90;;;24.20;71.80;;;;;;10055391;28;20034;-60
2022/08/15 01:03:26;;;;;;;4.15;2.75;;;24.30;72.10;;;;;;10055821;28;20022;-61
2022/08/15 01:08:20;;;;;;;4.30;2.50;;;23.90;73.10;;;;;;10069275;28;20393;-60
2022/08/15 01:13:10;;;;;;;2.95;1.98;;;23.80;73.70;;;;;;10053069;28;20139;-59
2022/08/15 01:18:01;;;;;;;3.78;2.60;;;23.60;74.60;;;;;;10061887;28;20506;-60
2022/08/15 01:22:55;;;;;;;4.72;2.50;;;23.60;75.00;;;;;;10061944;28;20028;-59
2022/08/15 01:28:03;;;;;;;2.88;1.85;;;23.30;76.00;;;;;;10054584;28;20025;-59
2022/08/15 01:32:56;;;;;;;2.05;1.55;;;23.10;77.10;;;;;;10086189;28;20032;-60
2022/08/15 01:37:50;;;;;;;3.13;2.35;;;22.90;77.50;;;;;;10073084;28;20045;-60
2022/08/15 01:42:47;;;;;;;3.17;1.60;;;22.90;77.90;;;;;;10076136;28;20108;-61
2022/08/15 01:48:02;;;;;;;2.65;1.50;;;22.90;78.00;;;;;;10057598;28;20210;-60
2022/08/15 01:53:01;;;;;;;2.53;1.20;;;23.00;78.50;;;;;;10055974;28;20052;-61
2022/08/15 01:57:52;;;;;;;1.58;1.17;;;22.90;78.20;;;;;;10050181;28;20038;-60
2022/08/15 02:02:43;;;;;;;2.38;1.60;;;23.00;78.30;;;;;;10053915;28;20031;-60
2022/08/15 02:07:34;;;;;;;2.70;1.60;;;22.90;78.60;;;;;;10066077;28;20456;-59
2022/08/15 02:12:32;;;;;;;3.60;1.88;;;23.00;78.90;;;;;;10069286;28;20027;-60
2022/08/15 02:17:23;;;;;;;1.83;1.20;;;22.90;79.20;;;;;;10067068;28;20041;-62
2022/08/15 02:22:16;;;;;;;4.57;1.58;;;22.80;79.60;;;;;;10070099;28;20388;-60
2022/08/15 02:27:07;;;;;;;1.38;0.98;;;22.90;79.90;;;;;;10065270;28;20053;-60
2022/08/15 02:32:06;;;;;;;3.65;1.80;;;22.80;80.50;;;;;;10082848;28;20036;-61
2022/08/15 02:36:57;;;;;;;2.53;1.70;;;22.90;81.00;;;;;;10079627;28;20112;-61
2022/08/15 02:41:51;;;;;;;3.33;1.20;;;22.90;81.30;;;;;;10082335;28;20104;-59
2022/08/15 02:46:43;;;;;;;5.40;1.33;;;22.80;81.50;;;;;;10076728;28;20028;-60
2022/08/15 02:51:33;;;;;;;3.70;1.40;;;22.90;82.10;;;;;;10069747;28;20080;-62
2022/08/15 02:56:27;;;;;;;3.83;2.10;;;22.80;82.70;;;;;;10061765;28;20071;-59
2022/08/15 03:01:20;;;;;;;2.33;1.90;;;22.70;83.20;;;;;;10059270;28;20033;-62
2022/08/15 03:06:14;;;;;;;3.53;1.60;;;22.50;83.70;;;;;;10042810;28;20149;-61
2022/08/15 03:11:07;;;;;;;1.75;1.33;;;22.60;84.20;;;;;;10065968;28;20028;-61
2022/08/15 03:15:59;;;;;;;3.15;1.77;;;22.40;84.90;;;;;;10070656;28;20055;-61
2022/08/15 03:20:55;;;;;;;2.78;1.60;;;22.60;84.70;;;;;;10058091;28;20052;-61
2022/08/15 03:25:49;;;;;;;2.42;1.60;;;22.50;85.00;;;;;;10058798;28;20108;-62
2022/08/15 03:30:40;;;;;;;2.92;1.58;;;22.40;86.00;;;;;;10061107;28;20111;-62
2022/08/15 03:35:37;;;;;;;3.45;1.48;;;22.50;86.00;;;;;;10080569;28;20120;-62
2022/08/15 03:40:28;;;;;;;3.53;2.08;;;22.50;86.20;;;;;;10083337;28;20053;-62
2022/08/15 03:45:20;;;;;;;2.35;1.60;;;22.40;86.70;;;;;;10078171;28;20108;-60
2022/08/15 03:50:12;;;;;;;2.58;1.48;;;22.30;87.60;;;;;;10072760;28;20481;-60
2022/08/15 03:55:06;;;;;;;1.98;1.35;;;22.40;87.50;;;;;;10065271;28;20018;-61
2022/08/15 03:59:57;;;;;;;2.08;1.80;;;22.40;87.90;;;;;;10056320;28;20037;-60
2022/08/15 04:04:47;;;;;;;1.73;1.40;;;22.20;88.70;;;;;;10057279;28;20033;-62
2022/08/15 04:09:39;;;;;;;2.58;1.73;;;22.30;89.00;;;;;;10079777;28;20040;-62
2022/08/15 04:14:30;;;;;;;2.13;1.30;;;22.40;89.00;;;;;;10068325;28;20025;-62
2022/08/15 04:19:21;;;;;;;4.43;1.40;;;22.50;89.30;;;;;;10067039;28;20116;-62
2022/08/15 04:24:12;;;;;;;4.78;2.08;;;22.60;89.20;;;;;;10060880;28;20033;-61
2022/08/15 04:29:02;;;;;;;4.18;1.50;;;22.50;89.90;;;;;;10068396;28;20464;-58
2022/08/15 04:33:53;;;;;;;6.05;2.05;;;22.50;90.00;;;;;;10078425;28;20023;-62
2022/08/15 04:38:45;;;;;;;3.35;2.47;;;22.50;90.00;;;;;;10081214;28;20379;-61
2022/08/15 04:43:38;;;;;;;1.88;1.50;;;22.60;90.10;;;;;;10077882;28;20521;-60
2022/08/15 04:48:30;;;;;;;6.00;1.80;;;22.50;90.50;;;;;;10073171;28;20231;-60
2022/08/15 04:53:24;;;;;;;3.97;2.08;;;22.50;90.40;;;;;;10067474;28;20033;-61
2022/08/15 04:58:16;;;;;;;2.03;1.63;;;22.40;90.60;;;;;;10056047;28;20065;-61
2022/08/15 05:03:09;;;;;;;3.40;1.92;;;22.40;90.60;;;;;;10046777;28;20021;-60
2022/08/15 05:08:00;;;;;;;2.67;1.20;;;21.90;91.20;;;;;;10054163;28;20077;-60
2022/08/15 05:12:50;;;;;;;2.92;2.25;;;21.90;91.60;;;;;;10063395;28;20065;-60
2022/08/15 05:17:41;;;;;;;2.88;1.45;;;21.80;91.80;;;;;;10062193;28;20588;-60
2022/08/15 05:22:32;;;;;;;2.45;1.60;;;21.90;91.90;;;;;;10060051;28;20072;-60
2022/08/15 05:27:23;;;;;;;3.83;1.40;;;21.80;92.00;;;;;;10054284;28;20125;-60
2022/08/15 05:32:14;;;;;;;2.60;1.60;;;21.90;92.00;;;;;;10087725;28;20098;-60
2022/08/15 05:37:04;;;;;;;2.88;1.60;;;21.70;92.30;;;;;;10063239;28;20029;-63
2022/08/15 05:42:13;;;;;;;2.55;1.40;;;21.50;92.80;;;;;;10075817;28;20036;-61
2022/08/15 05:47:37;;;;;;;4.25;1.75;;;21.60;92.90;;;;;;10070675;28;20090;-60
2022/08/15 05:52:34;;;;;;;3.60;1.60;;;21.50;93.10;;;;;;10043238;28;20045;-58
2022/08/15 05:57:36;;;;;;;3.88;1.45;;;21.60;93.10;;;;;;10064299;28;20052;-59
2022/08/15 06:02:52;;;;;;;2.55;1.48;;;21.80;93.10;;;;;;10064949;28;20033;-60
2022/08/15 06:07:45;;;;;;;;;;;22.30;92.90;;;;;;10080809;28;20045;-61
2022/08/15 06:12:44;;;;;;;2.17;1.38;;;22.50;92.70;;;;;;10079244;28;20175;-58
2022/08/15 06:17:43;;;;;;;2.47;1.20;;;22.60;92.40;;;;;;10069485;28;20044;-60
2022/08/15 06:22:40;;;;;;;3.22;1.70;;;22.50;92.60;;;;;;10063992;28;20451;-59
2022/08/15 06:27:40;;;;;;;2.58;1.60;;;22.60;92.50;;;;;;10059477;28;20077;-60
2022/08/15 06:33:06;;;;;;;2.13;1.27;;;23.00;92.20;;;;;;10092846;28;20138;-59
2022/08/15 06:38:19;;;;;;;2.10;1.58;;;23.10;92.20;;;;;;10079678;28;20511;-61
2022/08/15 06:43:11;;;;;;;1.05;0.95;;;23.10;92.20;;;;;;10079733;28;20334;-60
2022/08/15 06:48:07;;;;;;;4.03;1.48;;;22.90;92.30;;;;;;10074818;28;20033;-62
2022/08/15 06:53:26;;;;;;;2.17;1.40;;;23.00;92.20;;;;;;10065786;28;20103;-59
2022/08/15 06:58:26;;;;;;;1.90;1.40;;;22.80;92.30;;;;;;10046700;28;20053;-60
2022/08/15 07:03:48;;;;;;;2.75;1.40;;;23.20;92.10;;;;;;10064978;28;20341;-58
2022/08/15 07:08:50;;;;;;;4.28;1.75;;;23.50;91.60;;;;;;10069940;28;20045;-59
2022/08/15 07:13:56;;;;;;;0.95;0.80;;;23.80;91.50;;;;;;10074054;28;20499;-59
2022/08/15 07:18:50;;;;;;;2.50;1.40;;;23.80;91.30;;;;;;10060659;28;20052;-59
2022/08/15 07:24:08;;;;;;;2.40;1.58;;;23.40;91.50;;;;;;10062212;28;20029;-59
2022/08/15 07:29:07;;;;;;;1.83;1.48;;;23.40;91.50;;;;;;10068060;28;20025;-60
2022/08/15 07:34:05;;;;;;;3.08;1.17;;;23.50;91.30;;;;;;10081987;28;20052;-60
2022/08/15 07:38:56;;;;;;;3.20;1.33;;;23.60;91.10;;;;;;10084222;28;20462;-59
2022/08/15 07:43:48;;;;;;;2.03;0.95;;;23.70;90.80;;;;;;10078852;28;20561;-59
2022/08/15 07:48:41;;;;;;;1.92;1.20;;;23.70;90.70;;;;;;10070411;28;20169;-59
2022/08/15 07:53:32;;;;;;;3.63;1.13;;;23.80;90.60;;;;;;10066998;28;20009;-59
2022/08/15 07:58:24;;;;;;;1.55;1.40;;;23.80;90.60;;;;;;10056644;28;20472;-59
2022/08/15 08:03:21;;;;;;;1.88;1.48;;;24.00;90.20;;;;;;10063970;28;20047;-59
2022/08/15 08:08:12;;;;;;;2.63;1.52;;;24.10;90.10;;;;;;10072777;28;20053;-60
2022/08/15 08:13:34;;;;;;;2.22;1.10;;;24.20;89.90;;;;;;10077186;28;20398;-60
2022/08/15 08:18:52;;;;;;;2.30;1.50;;;24.20;89.70;;;;;;10061864;28;20060;-60
2022/08/15 08:23:47;;;;;;;2.40;1.45;;;24.40;89.30;;;;;;10052308;28;20535;-60
2022/08/15 08:28:52;;;;;;;1.67;1.45;;;24.60;89.10;;;;;;10064266;28;20380;-59
2022/08/15 08:33:54;;;;;;;1.67;1.40;;;24.60;88.90;;;;;;10081271;28;20034;-60
2022/08/15 08:39:11;;;;;;;1.70;1.27;;;24.70;88.80;;;;;;10080523;28;20105;-61
2022/08/15 08:44:20;;;;;;;1.77;1.08;;;24.70;88.20;;;;;;10077575;28;20052;-61
2022/08/15 08:49:43;;;;;;;1.23;0.93;;;24.60;88.50;;;;;;10070995;28;20029;-61
2022/08/15 08:54:56;;;;;;;3.38;1.90;;;24.70;88.10;;;;;;10036354;28;20520;-61
2022/08/15 09:00:14;;;;;;;4.15;1.63;;;24.90;87.50;;;;;;10041482;28;20515;-60
2022/08/15 09:05:17;;;;;;;1.50;1.10;;;25.20;86.50;;;;;;10068818;28;20478;-60
2022/08/15 09:10:09;;;;;;;1.73;1.10;;;25.30;86.20;;;;;;10071758;28;20068;-60
2022/08/15 09:15:06;;;;;;;3.53;1.48;;;25.40;85.80;;;;;;10065157;28;20025;-60
2022/08/15 09:20:16;;;;;;;3.53;1.50;;;25.50;85.00;;;;;;10061731;28;20037;-59
2022/08/15 09:25:08;;;;;;;1.48;1.30;;;25.70;83.80;;;;;;10055626;28;20518;-61
2022/08/15 09:30:07;;;;;;;1.70;1.42;;;25.80;83.80;;;;;;10075294;28;20020;-59
2022/08/15 09:35:17;;;;;;;2.00;1.13;;;26.00;83.00;;;;;;10083242;28;20131;-60
2022/08/15 09:40:26;;;;;;;1.50;1.38;;;26.20;81.80;;;;;;10086079;28;20037;-60
2022/08/15 09:45:47;;;;;;;2.60;2.10;;;26.20;81.60;;;;;;10077182;28;20025;-61
2022/08/15 09:50:57;;;;;;;2.95;1.67;;;26.30;80.40;;;;;;10076285;28;20426;-62
2022/08/15 09:55:49;;;;;;;2.70;1.67;;;26.40;79.90;;;;;;10064524;28;20171;-61
2022/08/15 10:00:53;;;;;;;3.40;2.08;;;26.30;79.40;;;;;;10062376;28;20039;-61
2022/08/15 10:06:04;;;;;;;2.47;1.60;;;26.60;78.50;;;;;;10073711;28;20021;-59
2022/08/15 10:11:10;;;;;;;2.35;1.67;;;26.70;77.50;;;;;;10075639;28;20108;-61
2022/08/15 10:16:01;;;;;;;3.53;1.80;;;26.80;76.80;;;;;;10077019;28;20220;-61
2022/08/15 10:21:17;;;;;;;4.20;2.15;;;26.80;76.50;;;;;;10067716;28;20606;-62
2022/08/15 10:26:18;;;;;;;3.38;1.95;;;26.90;75.80;;;;;;10062718;28;20048;-59
2022/08/15 10:31:09;;;;;;;2.35;2.08;;;26.90;75.70;;;;;;10085114;28;20399;-60
2022/08/15 10:36:13;;;;;;;3.42;1.80;;;27.10;75.30;;;;;;10079442;28;20056;-58
2022/08/15 10:41:18;;;;;;;2.63;2.00;;;27.10;74.70;;;;;;10073178;28;20119;-59
2022/08/15 10:46:21;;;;;;;2.30;1.90;;;27.30;74.10;;;;;;10066212;28;20032;-61
2022/08/15 10:51:31;;;;;;;3.17;2.20;;;27.60;73.60;;;;;;10060659;28;20028;-58
2022/08/15 10:56:25;;;;;;;2.05;1.90;;;27.50;73.20;;;;;;10058143;28;20057;-59
2022/08/15 11:01:20;;;;;;;3.92;2.45;;;27.70;73.20;;;;;;10056376;28;20530;-59
2022/08/15 11:06:14;;;;;;;4.68;3.30;;;28.10;72.80;;;;;;10076003;28;20140;-60
2022/08/15 11:11:10;;;;;;;3.30;2.22;;;28.20;72.00;;;;;;10072173;28;20018;-61
2022/08/15 11:16:17;;;;;;;3.20;2.17;;;28.60;71.50;;;;;;10076087;28;20049;-60
2022/08/15 11:21:22;;;;;;;2.75;2.30;;;28.60;71.20;;;;;;10069204;28;20072;-60
2022/08/15 11:26:13;;;;;;;4.88;2.53;;;28.80;70.30;;;;;;10062873;28;20147;-60
2022/08/15 11:31:15;;;;;;;4.15;1.98;;;29.30;69.90;;;;;;10083022;28;20049;-60
2022/08/15 11:36:15;;;;;;;4.95;2.97;;;29.60;68.60;;;;;;10077027;28;20029;-60
2022/08/15 11:41:06;;;;;;;4.28;3.00;;;29.40;68.40;;;;;;10066966;28;20041;-60
2022/08/15 11:45:57;;;;;;;3.45;2.75;;;29.30;68.20;;;;;;10072538;28;20036;-60
2022/08/15 11:51:21;;;;;;;5.15;2.95;;;29.10;68.10;;;;;;10072052;28;20343;-60
2022/08/15 11:56:22;;;;;;;5.05;3.05;;;29.30;67.30;;;;;;10055991;28;20068;-60
2022/08/15 12:01:30;;;;;;;3.78;2.50;;;28.60;67.20;;;;;;10058934;28;20496;-61
2022/08/15 12:06:29;;;;;;;3.75;2.20;;;26.00;71.00;;;;;;10073764;28;20076;-60
2022/08/15 12:11:23;;;;;;;5.75;2.20;;;24.20;75.60;;;;;;10068158;28;20600;-59
2022/08/15 12:16:31;;;;;;;5.65;2.67;;;23.40;78.40;;;;;;10073545;28;20091;-59
2022/08/15 12:21:23;;;;;;;2.92;1.80;;;23.00;81.00;;;;;;10062009;28;20431;-59
2022/08/15 12:26:16;;;;;;;3.85;1.67;;;22.60;83.00;;;;;;10056006;28;20391;-58
2022/08/15 12:31:14;;;;;;;2.75;1.50;;;22.60;83.60;;;;;;10078965;28;20471;-58
2022/08/15 12:36:05;;;;;;;3.53;1.95;;;22.60;83.60;;;;;;10057626;28;20144;-60
2022/08/15 12:40:55;;;;;;;5.47;2.03;;;22.40;85.50;;;;;;10058653;28;20530;-59
2022/08/15 12:45:46;;;;;;;5.28;2.05;;;22.20;87.40;;;;;;10061211;28;20049;-61
2022/08/15 12:50:38;;;;;;;2.63;1.63;;;22.30;88.40;;;;;;10062084;28;20052;-59
2022/08/15 12:55:30;;;;;;;4.32;1.60;;;22.60;88.70;;;;;;10060429;28;20030;-59
2022/08/15 13:00:21;;;;;;;2.10;1.65;;;22.80;88.70;;;;;;10055554;28;20087;-59
2022/08/15 13:05:22;;;;;;;5.88;1.73;;;23.10;89.00;;;;;;10062816;28;20079;-58
2022/08/15 13:10:17;;;;;;;3.50;2.20;;;23.20;89.10;;;;;;10074675;28;20132;-60
2022/08/15 13:15:08;;;;;;;3.45;2.38;;;23.20;89.70;;;;;;10059923;28;20029;-60
2022/08/15 13:25:08;;;;;;;5.10;2.25;;;23.80;88.70;;;;;;10061405;28;20084;-59
2022/08/15 13:30:01;;;;;;;5.38;2.35;;;23.70;89.10;;;;;;10072246;28;20087;-59
2022/08/15 13:34:53;;;;;;;6.25;2.40;;;23.50;89.30;;;;;;10075918;28;20021;-59
2022/08/15 13:39:43;;;;;;;3.92;2.03;;;23.60;89.50;;;;;;10067968;28;20140;-59
2022/08/15 13:44:36;;;;;;;2.78;1.77;;;23.30;90.00;;;;;;10074300;28;20152;-59
2022/08/15 13:49:29;;;;;;;3.92;2.40;;;23.10;90.30;;;;;;10062866;28;20038;-59
2022/08/15 13:54:24;;;;;;;4.80;2.08;;;22.90;90.70;;;;;;10063642;28;20441;-60
2022/08/15 13:59:15;;;;;;;4.65;2.50;;;23.00;90.90;;;;;;10053377;28;20067;-59
2022/08/15 14:04:11;;;;;;;3.92;2.42;;;23.00;91.10;;;;;;10059926;28;20059;-60
2022/08/15 14:09:04;;;;;;;4.00;1.80;;;23.10;91.20;;;;;;10069972;28;20052;-59
2022/08/15 14:13:56;;;;;;;3.92;2.13;;;23.20;91.50;;;;;;10067190;28;20045;-59
2022/08/15 14:18:47;;;;;;;6.25;2.75;;;23.20;91.80;;;;;;10071596;28;20672;-59
2022/08/15 14:23:38;;;;;;;4.00;2.10;;;23.20;92.10;;;;;;10066692;28;20323;-59
2022/08/15 14:28:30;;;;;;;4.70;2.60;;;23.10;92.30;;;;;;10067681;28;20029;-59
2022/08/15 14:33:22;;;;;;;5.22;2.03;;;23.20;92.60;;;;;;10087154;28;20032;-59
2022/08/15 14:38:12;;;;;;;4.63;2.58;;;23.20;92.90;;;;;;10082246;28;20124;-59
2022/08/15 14:43:05;;;;;;;5.00;3.25;;;23.20;93.20;;;;;;10082197;28;20191;-61
2022/08/15 14:47:57;;;;;;;9.43;2.85;;;23.30;93.30;;;;;;10075772;28;20017;-62
2022/08/15 14:52:48;;;;;;;7.85;3.42;;;23.30;93.80;;;;;;10069956;28;20025;-59
2022/08/15 14:57:39;;;;;;;4.93;2.60;;;23.60;93.70;;;;;;10062547;28;20043;-61
2022/08/15 15:02:31;;;;;;;4.05;2.38;;;24.10;93.50;;;;;;10057965;28;20025;-60
2022/08/15 15:07:22;;;;;;;3.35;2.40;;;24.40;93.30;;;;;;10076344;28;20049;-60
2022/08/15 15:12:13;;;;;;;4.40;2.45;;;25.10;93.00;;;;;;10075225;28;20025;-62
2022/08/15 15:17:04;;;;;;;6.07;2.40;;;27.00;92.10;;;;;;10072385;28;20407;-58
2022/08/15 15:21:55;;;;;;;4.47;2.72;;;28.80;90.50;;;;;;10066080;28;20041;-59
2022/08/15 15:26:45;;;;;;;5.00;2.88;;;29.00;90.30;;;;;;10059683;28;20568;-62
2022/08/15 15:31:37;;;;;;;6.68;2.70;;;28.80;90.50;;;;;;10077037;28;20140;-61
2022/08/15 15:36:36;;;;;;;3.47;2.13;;;29.60;88.50;;;;;;10076491;28;20052;-62
2022/08/15 15:41:26;;;;;;;5.78;3.55;;;30.10;86.90;;;;;;10079160;28;20379;-62
2022/08/15 15:46:17;;;;;;;5.93;2.20;;;30.00;86.20;;;;;;10074525;28;20602;-61
2022/08/15 15:51:08;;;;;;;3.20;1.77;;;30.50;84.50;;;;;;10068802;28;20036;-61
2022/08/15 15:55:59;;;;;;;1.75;1.65;;;31.00;82.30;;;;;;10061455;28;20116;-59
2022/08/15 16:00:50;;;;;;;2.10;1.90;;;32.20;79.60;;;;;;10056050;28;20144;-60
2022/08/15 16:05:48;;;;;;;2.80;1.30;;;34.70;74.30;;;;;;10085848;28;20032;-61
2022/08/15 16:10:43;;;;;;;2.72;1.52;;;36.60;69.60;;;;;;10070713;28;20120;-61
2022/08/15 16:15:44;;;;;;;2.55;1.40;;;37.00;66.60;;;;;;10063469;28;20026;-62
2022/08/15 16:20:52;;;;;;;3.03;1.20;;;38.20;63.50;;;;;;10057101;28;20419;-61
2022/08/15 16:25:57;;;;;;;1.38;1.13;;;38.20;61.00;;;;;;10055985;28;20115;-61
2022/08/15 16:30:53;;;;;;;2.28;1.40;;;38.10;58.40;;;;;;10066767;28;20629;-62
2022/08/15 16:36:02;;;;;;;1.38;1.25;;;38.60;57.40;;;;;;10053972;28;20052;-62
2022/08/15 16:41:12;;;;;;;5.28;1.35;;;38.20;56.10;;;;;;10076408;28;20187;-60
2022/08/15 16:46:29;;;;;;;1.83;1.35;;;38.90;54.80;;;;;;10060762;28;20108;-61
2022/08/15 16:51:27;;;;;;;1.27;1.13;;;39.10;52.60;;;;;;10060439;28;20060;-62
2022/08/15 16:56:34;;;;;;;1.15;1.08;;;38.70;52.40;;;;;;10032337;28;20108;-62
2022/08/15 17:01:59;;;;;;;2.85;1.20;;;38.30;51.10;;;;;;10052962;28;20047;-60
2022/08/15 17:07:25;;;;;;;1.73;1.10;;;38.10;50.50;;;;;;10062347;28;20188;-59
2022/08/15 17:12:23;;;;;;;1.83;1.20;;;36.70;51.30;;;;;;10068878;28;20029;-60
2022/08/15 17:17:17;;;;;;;1.90;1.50;;;34.30;54.40;;;;;;10066447;28;20099;-59
2022/08/15 17:22:40;;;;;;;2.30;1.20;;;34.50;54.30;;;;;;10049271;28;20558;-60
2022/08/15 17:27:46;;;;;;;2.15;1.20;;;36.10;51.30;;;;;;10040827;28;20118;-58
2022/08/15 17:32:53;;;;;;;2.35;1.33;;;31.20;57.50;;;;;;10078003;28;20025;-59
2022/08/15 17:38:03;;;;;;;2.30;1.50;;;30.10;59.10;;;;;;10050961;22;20049;-67
2022/08/15 17:42:59;;;;;;;1.70;1.45;;;29.00;60.40;;;;;;10012848;28;20026;-66
2022/08/15 17:47:55;;;;;;;2.83;1.77;;;27.70;62.50;;;;;;10012596;28;20164;-66
2022/08/15 17:52:54;;;;;;;3.15;1.55;;;26.90;64.10;;;;;;10015940;28;20026;-66
2022/08/15 17:57:59;;;;;;;2.05;1.85;;;26.50;65.10;;;;;;10019415;28;20030;-65
2022/08/15 18:02:54;;;;;;;3.13;2.20;;;26.30;65.80;;;;;;10021160;28;20034;-66
2022/08/15 18:07:46;;;;;;;4.60;1.98;;;26.00;66.80;;;;;;10019089;28;20054;-66
2022/08/15 18:12:36;;;;;;;2.05;1.63;;;25.80;67.70;;;;;;10019344;28;20022;-66
2022/08/15 18:17:30;;;;;;;2.50;1.73;;;25.70;68.70;;;;;;10018846;28;20049;-66
2022/08/15 18:22:21;;;;;;;4.63;1.67;;;25.80;69.20;;;;;;10019984;28;20081;-66
2022/08/15 18:27:15;;;;;;;4.38;2.10;;;25.80;69.70;;;;;;10018348;28;20029;-66
2022/08/15 18:32:19;;;;;;;3.28;2.60;;;25.70;70.40;;;;;;10018511;28;20550;-66
2022/08/15 18:37:31;;;;;;;2.92;2.03;;;25.50;71.60;;;;;;10024528;28;20087;-65
2022/08/15 18:42:32;;;;;;;2.28;1.73;;;25.30;72.40;;;;;;10017452;28;20045;-65
2022/08/15 18:47:25;;;;;;;3.38;1.75;;;25.30;73.10;;;;;;10006112;28;20065;-67
2022/08/15 18:52:26;;;;;;;2.33;1.75;;;25.20;73.80;;;;;;10016903;28;20036;-65
2022/08/15 18:57:16;;;;;;;3.60;2.15;;;25.10;74.90;;;;;;10017159;28;20519;-66
2022/08/15 19:02:23;;;;;;;5.10;2.47;;;24.90;75.90;;;;;;10016773;28;20132;-65
2022/08/15 19:07:17;;;;;;;2.63;2.15;;;24.80;76.80;;;;;;10017619;28;20538;-67
2022/08/15 19:12:18;;;;;;;4.33;2.20;;;24.80;77.70;;;;;;10017327;28;20034;-68
2022/08/15 19:17:26;;;;;;;2.72;2.10;;;24.70;78.40;;;;;;10016104;28;20034;-67
2022/08/15 19:22:18;;;;;;;4.03;2.30;;;24.60;79.40;;;;;;10014841;28;20120;-67
2022/08/15 19:27:22;;;;;;;3.47;2.25;;;24.60;80.00;;;;;;10016541;28;20030;-67
2022/08/15 19:32:25;;;;;;;2.80;2.00;;;24.60;80.90;;;;;;10016169;28;20034;-66
2022/08/15 19:37:22;;;;;;;4.63;2.30;;;24.50;81.40;;;;;;10022102;28;20073;-67
2022/08/15 19:42:24;;;;;;;4.70;2.70;;;24.50;82.00;;;;;;10016907;28;20030;-66
2022/08/15 19:47:36;;;;;;;7.35;2.45;;;24.50;82.60;;;;;;9998972;28;20034;-67
2022/08/15 19:52:50;;;;;;;7.50;3.00;;;24.50;83.50;;;;;;10016800;28;20038;-67
2022/08/15 19:57:49;;;;;;;4.80;3.40;;;24.40;84.30;;;;;;10016166;28;20254;-66
2022/08/15 20:02:45;;;;;;;2.97;2.05;;;24.30;84.90;;;;;;10015831;28;20213;-66
2022/08/15 20:07:44;;;;;;;4.30;2.40;;;24.30;85.50;;;;;;10014161;28;20041;-67
2022/08/15 20:12:53;;;;;;;3.42;2.33;;;24.10;86.40;;;;;;10012506;28;20034;-67
2022/08/15 20:18:09;;;;;;;3.92;2.67;;;24.20;86.70;;;;;;10014148;28;20076;-66
2022/08/15 20:23:21;;;;;;;3.47;2.30;;;24.30;87.50;;;;;;10014476;28;20026;-68
2022/08/15 20:28:17;;;;;;;5.63;2.17;;;24.30;87.80;;;;;;10013722;28;20045;-68
2022/08/15 20:33:12;;;;;;;4.28;2.15;;;24.20;87.90;;;;;;10014117;28;20084;-68
2022/08/15 20:38:10;;;;;;;;;;;24.30;88.10;;;;;;10022173;28;20073;-67
2022/08/15 20:43:08;;;;;;;5.78;2.33;;;24.20;88.30;;;;;;10014824;28;19905;-67
2022/08/15 20:48:03;;;;;;;3.33;2.50;;;24.20;88.20;;;;;;10013778;28;20422;-68
2022/08/15 20:52:56;;;;;;;4.70;2.00;;;24.00;89.20;;;;;;10014016;28;20021;-67
2022/08/15 20:57:46;;;;;;;6.80;2.90;;;24.10;89.40;;;;;;10013577;28;20586;-67
2022/08/15 21:02:45;;;;;;;5.00;3.13;;;23.90;90.00;;;;;;10013898;28;20036;-66
2022/08/15 21:07:48;;;;;;;3.78;2.80;;;23.70;90.50;;;;;;10013556;28;20025;-68
2022/08/15 21:12:51;;;;;;;3.20;2.28;;;23.80;90.80;;;;;;10013364;28;20057;-67
2022/08/15 21:18:01;;;;;;;6.28;2.40;;;23.90;90.80;;;;;;10016869;28;20033;-67
2022/08/15 21:22:53;;;;;;;2.47;2.10;;;23.80;91.20;;;;;;10012871;28;20048;-66
2022/08/15 21:28:09;;;;;;;2.85;2.15;;;23.70;91.30;;;;;;10012325;28;20022;-68
2022/08/15 21:33:01;;;;;;;3.60;2.40;;;23.50;91.70;;;;;;10012647;28;20022;-68
2022/08/15 21:37:52;;;;;;;4.72;2.78;;;23.40;91.80;;;;;;10019461;28;20096;-66
2022/08/15 21:42:46;;;;;;;3.65;2.60;;;23.40;92.00;;;;;;10012518;28;20058;-66
2022/08/15 21:47:47;;;;;;;2.67;2.13;;;23.40;92.10;;;;;;10012047;28;20022;-67
2022/08/15 21:52:47;;;;;;;3.63;2.53;;;23.50;92.30;;;;;;10012380;28;20042;-66
2022/08/15 21:57:42;;;;;;;5.15;2.60;;;23.60;92.10;;;;;;10011854;28;20027;-67
2022/08/15 22:02:38;;;;;;;3.60;2.63;;;23.60;92.10;;;;;;10012256;28;20038;-67
2022/08/15 22:07:30;;;;;;;4.07;3.08;;;23.50;92.20;;;;;;10011491;28;20026;-67
2022/08/15 22:12:28;;;;;;;3.92;2.75;;;23.50;92.30;;;;;;10011521;28;20034;-66
2022/08/15 22:17:20;;;;;;;3.17;2.28;;;23.40;92.30;;;;;;9993709;28;20088;-66
2022/08/15 22:22:15;;;;;;;6.72;2.50;;;23.20;92.50;;;;;;10012206;28;20570;-66
2022/08/15 22:27:06;;;;;;;4.43;2.33;;;23.20;92.60;;;;;;10010710;28;20463;-66
2022/08/15 22:31:59;;;;;;;3.15;2.72;;;23.40;92.50;;;;;;10012772;28;20088;-67
2022/08/15 22:36:53;;;;;;;4.00;2.70;;;23.50;92.50;;;;;;10020247;28;20462;-66
2022/08/15 22:41:46;;;;;;;3.20;2.47;;;23.60;92.50;;;;;;10022214;28;20038;-67
2022/08/15 22:46:44;;;;;;;5.63;3.58;;;23.50;92.60;;;;;;10018969;28;20363;-67
2022/08/15 22:51:51;;;;;;;4.75;3.08;;;23.60;92.60;;;;;;10019914;28;20022;-68
2022/08/15 22:56:43;;;;;;;3.58;3.08;;;23.50;92.70;;;;;;10017944;28;20030;-67
2022/08/15 23:01:38;;;;;;;4.40;3.30;;;23.50;92.70;;;;;;10017624;28;20068;-67
2022/08/15 23:06:32;;;;;;;;;;;23.40;92.80;;;;;;10017845;28;20049;-66
2022/08/15 23:11:29;;;;;;;2.88;2.63;;;23.40;92.90;;;;;;9999464;28;20058;-67
2022/08/15 23:16:29;;;;;;;5.63;3.13;;;23.50;92.80;;;;;;10016426;28;20034;-66
2022/08/15 23:21:21;;;;;;;3.75;3.05;;;23.50;92.70;;;;;;10017702;28;20512;-67
2022/08/15 23:26:14;;;;;;;3.90;2.72;;;23.40;92.80;;;;;;9999846;28;20177;-67
2022/08/15 23:31:11;;;;;;;3.33;2.65;;;23.30;92.90;;;;;;10017147;28;20041;-69
2022/08/15 23:36:04;;;;;;;3.72;3.42;;;23.30;92.90;;;;;;10016228;28;20029;-66
2022/08/15 23:41:06;;;;;;;5.22;2.92;;;23.30;92.90;;;;;;10024157;28;20508;-68
2022/08/15 23:45:56;;;;;;;5.57;2.83;;;23.50;92.80;;;;;;10009536;28;20443;-65
2022/08/15 23:50:47;;;;;;;5.00;3.10;;;23.30;92.80;;;;;;10014550;28;20032;-67
2022/08/15 23:55:40;;;;;;;5.05;3.20;;;23.40;92.90;;;;;;10015720;28;20029;-68
